Flight Track Log - Related Links

Times and Time Zones

All times are in EDT time to prevent confusion due to time zone crossing. See the TPA702 flight status page for this flight to view local times or setup timezone preferences in your user account.

Time Position Orientation Groundspeed Altitude Reporting Facility
EDT Latitude Longitude Course Direction KTS MPH feet Rate Location/Type
Sat 04:21:00 PM 10.8872 -76.5146 347° North  Level Estimated
Sat 04:22:00 PM 11.0004 -76.5411 347° North  Level Estimated
Sat 04:23:00 PM 11.1137 -76.5677 347° North  Level Estimated
Sat 04:24:00 PM 11.2269 -76.5943 347° North  Level Estimated
Sat 04:24:05 PM 23.1103 -79.2711 347° North 467 537 40,000  Level Miami Center
Sat 04:25:00 PM 11.3402 -76.6209 347° North  Level Estimated
Sat 04:25:05 PM 23.2308 -79.3119 343° North 454 522 40,000  Level Miami Center
Sat 04:26:00 PM 11.4534 -76.6475 347° North  Level Estimated
Sat 04:26:05 PM 23.3514 -79.3436 346° North 449 517 40,000  Level Miami Center
Sat 04:27:00 PM 11.5667 -76.6742 347° North  Level Estimated
Sat 04:27:05 PM 23.4722 -79.3686 349° North 443 510 40,000  Level Miami Center
Sat 04:28:00 PM 11.6799 -76.7008 347° North  Level Estimated
Sat 04:28:05 PM 23.5992 -79.3847 353° North 450 518 40,000  Level Miami Center
Sat 04:29:00 PM 11.7932 -76.7275 347° North  Level Estimated
Sat 04:29:05 PM 23.7228 -79.3803 North 450 518 39,900  Level Miami Center
Sat 04:30:05 PM 23.8486 -79.3442 15° North 445 512 40,000 50 Climbing Miami Center
Sat 04:31:05 PM 23.9681 -79.3261 North 440 506 40,000  Level Miami Center
Sat 04:32:05 PM 24.0844 -79.3625 344° North 428 493 40,000 -850 Level Miami Center
Sat 04:33:05 PM 24.2072 -79.3947 347° North 434 499 38,300 -2,750 Descending Miami Center
Sat 04:34:05 PM 24.3319 -79.4292 346° North 446 513 34,500 -4,100 Descending Miami Center
Sat 04:35:05 PM 24.4628 -79.4683 345° North 463 533 30,100 -2,888 Descending Miami Center
Sat 04:41:13 PM 25.2220 -79.6810 345° North 385 443 13,900 -2,465 Descending FlightAware
Sat 04:42:11 PM 25.3050 -79.7050 345° North 363 418 12,600 -1,152 Descending FlightAware
Sat 04:42:52 PM 25.3720 -79.7240 346° North 350 403 12,000 -1,012 Descending FlightAware
Sat 04:43:34 PM 25.4250 -79.7770 318° Northwest 332 382 11,200 -1,326 Descending FlightAware
Sat 04:44:18 PM 25.4730 -79.8440 308° West 329 379 10,100 -987 Descending FlightAware
Sat 04:44:53 PM 25.5030 -79.8900 306° West 307 353 9,900 -492 Descending FlightAware
Sat 04:45:19 PM 25.5220 -79.9230 303° West 294 338 9,600 -1,067 Descending FlightAware
Sat 04:45:38 PM 25.5360 -79.9460 304° West 293 337 9,100 -1,364 Descending FlightAware
Sat 04:46:03 PM 25.5570 -79.9780 306° West 292 336 8,600 -1,200 Descending FlightAware
Sat 04:46:18 PM 25.5690 -79.9970 305° West 290 334 8,300 -600 Descending FlightAware
Sat 04:46:43 PM 25.5890 -80.0260 307° West 282 325 8,200 -450 Descending FlightAware
Sat 04:46:58 PM 25.6000 -80.0440 304° West 275 316 8,000 -400 Descending FlightAware
Sat 04:47:28 PM 25.6220 -80.0770 306° West 256 295 7,900 -100 Descending FlightAware
Sat 04:47:58 PM 25.6430 -80.1090 306° West 254 292 7,900  Level FlightAware
Sat 04:48:23 PM 25.6610 -80.1370 306° West 257 296 7,900  Level FlightAware
Sat 04:48:38 PM 25.6670 -80.1550 290° West 254 292 7,900 -231 Level FlightAware
Sat 04:48:49 PM 25.6700 -80.1680 284° West 253 291 7,800 -973 Descending FlightAware
Sat 04:49:15 PM 25.6780 -80.1990 286° West 248 285 7,300 -1,174 Descending FlightAware
Sat 04:49:35 PM 25.6830 -80.2170 287° West 246 283 6,900 -1,500 Descending FlightAware
Sat 04:50:03 PM 25.6930 -80.2530 287° West 241 277 6,100 -1,627 Descending FlightAware
Sat 04:50:34 PM 25.7030 -80.2940 285° West 243 280 5,300 -1,100 Descending FlightAware
Sat 04:51:03 PM 25.7100 -80.3240 285° West 237 273 5,000 -500 Descending FlightAware
Sat 04:51:34 PM 25.7090 -80.3640 268° West 214 246 4,800 -429 Descending FlightAware
Sat 04:51:59 PM 25.7080 -80.3860 267° West 205 236 4,600 -490 Descending FlightAware
Sat 04:52:23 PM 25.7060 -80.4150 266° West 188 216 4,400 -682 Descending FlightAware
Sat 04:52:43 PM 25.7100 -80.4330 284° West 189 217 4,100 -933 Descending FlightAware
Sat 04:53:08 PM 25.7180 -80.4560 291° West 185 213 3,700 -1,067 Descending FlightAware
Sat 04:53:28 PM 25.7270 -80.4710 304° West 187 215 3,300 -1,385 Descending FlightAware
Sat 04:53:34 PM 25.7330 -80.4750 329° Northwest 200 230 3,100 -960 Descending FlightAware
Sat 04:53:53 PM 25.7500 -80.4780 351° North 196 226 2,900 -222 Descending FlightAware
Sat 04:54:28 PM 25.7760 -80.4640 26° Northeast 185 213 2,900 -120 Level FlightAware
Sat 04:54:43 PM 25.7800 -80.4500 72° East 186 214 2,800 -1,179 Descending FlightAware
Sat 04:55:24 PM 25.7820 -80.4100 87° East 187 215 1,800 -1,548 Descending FlightAware
Sat 04:55:45 PM 25.7830 -80.3900 87° East 184 212 1,200 -1,222 Descending FlightAware
Sat 04:56:18 PM 25.7840 -80.3620 88° East 165 190 700 -792 Descending FlightAware
Sat 04:56:38 PM 25.7850 -80.3450 86° East 157 181 500 -750 Descending FlightAware
Sat 04:56:58 PM 25.7850 -80.3290 90° East 154 177 200 -400 Descending FlightAware
Sat 04:57:23 PM 25.7850 -80.3120 90° East 154 177 200  Level FlightAware
Sat 04:57:53 PM 25.7870 -80.2920 84° East 74 85 -400 Descending FlightAware
Sat 04:58:15 PM 25.7870 -80.2880 90° East 30 35  Level FlightAware
Sat 04:58:27 PM 25.7880 -80.2870 42° Northeast 16 18  Level FlightAware
Sat 04:58:36 PM 25.7890 -80.2870 360° North 25 29  Level FlightAware
Sat 05:00:31 PM 25.7890 -80.2890 270° West 33 38  Level FlightAware
Sat 05:00:56 PM 25.7890 -80.2920 270° West 19 22  Level FlightAware
Sat 05:01:26 PM 25.7890 -80.2950 270° West 23 26  Level FlightAware
Sat 05:01:45 PM 25.7890 -80.2970 270° West 22 25  Level FlightAware
Sat 05:02:13 PM 25.7890 -80.3010 270° West 27 31  Level FlightAware
Sat 05:03:06 PM 25.7890 -80.3060 270° West 24 28  Level FlightAware
Sat 05:03:59 PM 25.7910 -80.3050 24° Northeast 21 24  Level FlightAware

Login

Don't have an account? Register now (free) for customized features, flight alerts, and more!